Deming Municipal Airport
KDMN : now visible

Airfield :











YOU CAN JOIN US ON...

 
LOGIN :

Register | Disclaimer

   EN    FR    IT 

 









Legend :    VFR   Marginal VFR   IFR   Intensive IFR   Very Intensive IFR
Visi :
Ceiling :
>= 8 km
>= 3000ft
5 to 8 km
1000 to 3000 ft
1500m to 5 km
500 to 1000 ft
800 to 1500m
200 to 500 ft
< 800m
< 200 ft
Symbols :   Thunderstorms  Fog  Heavy snow  Heavy precipitations  Wind > 20 kt






- Airport Elevation : 4314 ft


KDMN - Deming Municipal

CURRENT METAR :
  • 202233Z AUTO 35021G39KT 4SM +TSRA SCT060 SCT075 SCT120 24/13 A2990 RMK AO2 PK WND 01048/2208 LTG DSNT SE AND NW RAE2154B14 TSB30 PRESRR P0006 T02440128 $

EXPIRED METARs :
  • 202153Z AUTO 08005KT 10SM VCTS -RA FEW049 FEW080 35/10 A2982 RMK AO2 PK WND 02047/2129 WSHFT 2125 LTG DSNT N AND NW RAB29 TSB18E34 SLP002 P0001 T03500100
  • 202139Z AUTO 07010G46KT 030V120 2 1/2SM VCTS -RA FEW038 SCT080 SCT110 31/09 A2983 RMK AO2 PK WND 02047/2129 WSHFT 2125 VIS 1 1/2V5 LTG DSNT N AND NW RAB29 TSB18E34 P0001 T03110089
  • 202124Z AUTO 02008G19KT 10SM TS CLR 39/01 A2983 RMK AO2 LTG DSNT NE TSB18 T03890006
  • 202053Z AUTO 26009G20KT 10SM CLR 42/M01 A2984 RMK AO2 PK WND 28033/2001 LTG DSNT N AND NE SLP004 T04221006 56020
  • 202016Z AUTO 26018G26KT 10SM CLR 39/01 A2986 RMK AO2 PK WND 28033/2001 T03940006
  • 202001Z AUTO 28016G33KT 10SM VCTS CLR 41/01 A2986 RMK AO2 PK WND 28033/2001 T04060006

TAF KDMN
Valid from the 20 at 22:00 until the 21 at 18:00 UTC


202147Z 2022/2118 30015G25KT P6SM VCTS SCT100CB BKN200
TEMPO 2022/2101 VRB30G40KT 3SM TS
FM210300 28012KT P6SM BKN250
KZAB FIR / North America



MET'MAP, your aeronautical weather chart ! - Copyright ORBIFLY December 2007 - Disclaimer

ORBIFLY MET'MAP TEAM :

Programming & Development : Alexandra Zaïnal
Concept & original design : Baudouin d'Aumeries
Assistance for programming : Marc-Olivier Méhu
Technical & hardware support : Manuel Goepfert

Contact : metmap@orbifly.com




SOURCES & CREDITS :

   NOAA       Earth
Advisory